Time;durP1;ratioP1;P1;durP2;ratioP2;P2;SDS_P1;SDS_P2;PMS_P1;PMS_P2;Temp;Humidity;BMP_temperature;BMP_pressure;BME280_temperature;BME280_humidity;BME280_pressure;Samples;Min_cycle;Max_cycle;Signal;HPM_P1;HPM_P2
2023/05/24 00:00:39;;;;;;;22.10;5.27;;;6.00;99.90;;;;;;5068586;28;20053;-70
2023/05/24 00:03:05;;;;;;;17.87;5.20;;;6.00;99.90;;;;;;5053148;28;20639;-70
2023/05/24 00:05:32;;;;;;;22.75;4.65;;;6.00;99.90;;;;;;5072236;28;20055;-70
2023/05/24 00:07:58;;;;;;;21.67;5.10;;;6.00;99.90;;;;;;5066768;28;20037;-70
2023/05/24 00:10:25;;;;;;;19.42;4.78;;;6.10;99.90;;;;;;5066920;28;20032;-70
2023/05/24 00:12:50;;;;;;;25.50;5.25;;;6.10;99.90;;;;;;5066601;28;20040;-70
2023/05/24 00:15:16;;;;;;;22.17;5.13;;;6.10;99.90;;;;;;5067179;28;20039;-70
2023/05/24 00:17:42;;;;;;;20.07;4.53;;;6.10;99.90;;;;;;5077290;28;20048;-70
2023/05/24 00:20:12;;;;;;;18.83;4.60;;;6.00;99.90;;;;;;5072259;28;20048;-70
2023/05/24 00:22:40;;;;;;;21.27;5.10;;;6.00;99.90;;;;;;5068850;28;20045;-70
2023/05/24 00:25:06;;;;;;;19.52;4.35;;;6.10;99.90;;;;;;5066567;28;20032;-70
2023/05/24 00:27:32;;;;;;;20.08;4.28;;;6.00;99.90;;;;;;5074716;28;20040;-70
2023/05/24 00:29:58;;;;;;;22.27;4.73;;;6.10;99.90;;;;;;5073334;28;20042;-70
2023/05/24 00:32:23;;;;;;;22.77;4.83;;;6.10;99.90;;;;;;5066931;28;20047;-70
2023/05/24 00:34:49;;;;;;;26.83;4.50;;;6.10;99.90;;;;;;5050709;28;20033;-70
2023/05/24 00:37:16;;;;;;;28.63;5.30;;;6.10;99.90;;;;;;5067607;28;20068;-70
2023/05/24 00:39:42;;;;;;;25.27;5.25;;;6.10;99.90;;;;;;5073793;28;20117;-70
2023/05/24 00:42:08;;;;;;;20.30;4.90;;;6.10;99.90;;;;;;5077061;28;20044;-70
2023/05/24 00:44:34;;;;;;;27.63;4.77;;;6.20;99.90;;;;;;5049039;28;20408;-70
2023/05/24 00:47:00;;;;;;;23.37;5.57;;;6.20;99.90;;;;;;5065468;28;20144;-70
2023/05/24 00:49:26;;;;;;;27.65;6.50;;;6.20;99.90;;;;;;5049764;28;20178;-70
2023/05/24 00:51:53;;;;;;;25.00;5.57;;;6.20;99.90;;;;;;5060869;28;20058;-70
2023/05/24 00:54:19;;;;;;;23.35;4.82;;;6.20;99.90;;;;;;5069565;28;20043;-70
2023/05/24 00:56:46;;;;;;;25.17;6.10;;;6.20;99.90;;;;;;5054452;28;20125;-70
2023/05/24 00:59:13;;;;;;;23.83;4.70;;;6.20;99.90;;;;;;5053519;28;20197;-70
2023/05/24 01:01:40;;;;;;;18.42;4.63;;;6.20;99.90;;;;;;5071994;28;20504;-70
2023/05/24 01:04:06;;;;;;;19.35;4.28;;;6.30;99.90;;;;;;5071622;28;20048;-70
2023/05/24 01:06:43;;;;;;;24.33;5.30;;;6.30;99.90;;;;;;5079403;28;20113;-70
2023/05/24 01:09:24;;;;;;;23.90;4.82;;;6.40;99.90;;;;;;5053536;28;20290;-70
2023/05/24 01:12:31;;;;;;;24.00;5.55;;;6.40;99.90;;;;;;5052252;28;20040;-70
2023/05/24 01:15:20;;;;;;;15.80;3.80;;;6.50;99.90;;;;;;5064295;28;20060;-70
2023/05/24 01:18:10;;;;;;;22.13;4.75;;;6.50;99.90;;;;;;5064276;28;20040;-70
2023/05/24 01:20:38;;;;;;;23.48;4.63;;;6.60;99.90;;;;;;5057653;28;20131;-70
2023/05/24 01:23:27;;;;;;;28.15;5.60;;;6.60;99.90;;;;;;5053365;28;20044;-70
2023/05/24 01:26:11;;;;;;;26.35;4.68;;;6.70;99.90;;;;;;5058355;28;20686;-70
2023/05/24 01:28:38;;;;;;;26.30;4.28;;;6.70;99.90;;;;;;5086432;28;20040;-70
2023/05/24 01:31:04;;;;;;;17.33;4.78;;;6.80;99.90;;;;;;5052179;28;20063;-70
2023/05/24 01:33:31;;;;;;;19.27;4.90;;;6.80;99.90;;;;;;5052216;28;20037;-70
2023/05/24 01:35:56;;;;;;;20.13;4.38;;;6.70;99.90;;;;;;5059413;28;20048;-70
2023/05/24 01:38:22;;;;;;;23.73;4.40;;;6.70;99.90;;;;;;5069594;28;20071;-70
2023/05/24 01:40:57;;;;;;;16.20;4.10;;;6.60;99.90;;;;;;5084269;28;20500;-70
2023/05/24 01:43:34;;;;;;;18.98;4.00;;;6.60;99.90;;;;;;5072273;28;20040;-70
2023/05/24 01:46:22;;;;;;;24.90;4.28;;;6.60;99.90;;;;;;5086339;28;20090;-70
2023/05/24 01:49:16;;;;;;;24.30;4.45;;;6.70;99.90;;;;;;5071287;28;20032;-70
2023/05/24 01:51:52;;;;;;;24.50;4.65;;;6.70;99.90;;;;;;5072556;28;20512;-70
2023/05/24 01:54:24;;;;;;;23.58;4.28;;;6.80;99.90;;;;;;5089304;28;20387;-70
2023/05/24 01:56:53;;;;;;;16.50;3.72;;;6.90;99.90;;;;;;5088932;28;20127;-70
2023/05/24 01:59:21;;;;;;;15.02;3.65;;;7.00;99.90;;;;;;5065227;28;20044;-70
2023/05/24 02:01:47;;;;;;;19.75;3.83;;;7.00;99.90;;;;;;5088336;28;20043;-70
2023/05/24 02:04:13;;;;;;;18.13;4.28;;;7.00;99.90;;;;;;5071236;28;21200;-70
2023/05/24 02:06:39;;;;;;;22.43;4.07;;;6.90;99.90;;;;;;5084047;28;20040;-70
2023/05/24 02:09:04;;;;;;;22.60;3.93;;;6.90;99.90;;;;;;5089157;28;20100;-70
2023/05/24 02:11:30;;;;;;;16.57;3.53;;;6.80;99.90;;;;;;5088639;28;20036;-70
2023/05/24 02:13:56;;;;;;;18.47;3.33;;;6.80;99.90;;;;;;5072283;28;20043;-70
2023/05/24 02:16:23;;;;;;;22.47;4.47;;;6.80;99.90;;;;;;5088209;28;20531;-70
2023/05/24 02:18:49;;;;;;;18.88;3.67;;;6.70;99.90;;;;;;5088695;28;20044;-70
2023/05/24 02:21:15;;;;;;;25.63;4.67;;;6.70;99.90;;;;;;5071641;28;20289;-70
2023/05/24 02:23:41;;;;;;;17.10;4.17;;;6.70;99.90;;;;;;5088604;28;20102;-70
2023/05/24 02:26:10;;;;;;;19.57;3.93;;;6.70;99.90;;;;;;5072501;28;20040;-70
2023/05/24 02:28:36;;;;;;;17.05;3.33;;;6.70;99.90;;;;;;5071855;28;20121;-70
2023/05/24 02:31:02;;;;;;;19.08;3.90;;;6.60;99.90;;;;;;5088303;28;20101;-70
2023/05/24 02:33:28;;;;;;;21.43;3.70;;;6.60;99.90;;;;;;5088377;28;20044;-70
2023/05/24 02:35:55;;;;;;;23.23;4.13;;;6.60;99.90;;;;;;5103367;28;20105;-70
2023/05/24 02:38:21;;;;;;;17.13;4.13;;;6.60;99.90;;;;;;5088540;28;20039;-70
2023/05/24 02:40:47;;;;;;;18.58;3.30;;;6.60;99.90;;;;;;5087987;28;20102;-70
2023/05/24 02:43:12;;;;;;;20.70;4.10;;;6.50;99.90;;;;;;5082176;28;20048;-70
2023/05/24 02:45:38;;;;;;;20.53;3.37;;;6.50;99.90;;;;;;5070926;28;20032;-70
2023/05/24 02:48:04;;;;;;;25.73;4.27;;;6.50;99.90;;;;;;5087165;28;20123;-70
2023/05/24 02:50:30;;;;;;;15.03;3.63;;;6.40;99.90;;;;;;5086425;28;20566;-70
2023/05/24 02:52:55;;;;;;;19.27;3.80;;;6.40;99.90;;;;;;5087944;28;20086;-70
2023/05/24 02:55:21;;;;;;;21.00;4.63;;;6.30;99.90;;;;;;5071437;28;20040;-70
2023/05/24 02:57:47;;;;;;;19.37;4.20;;;6.30;99.90;;;;;;5071725;28;20363;-70
2023/05/24 03:00:13;;;;;;;19.97;4.20;;;6.20;99.90;;;;;;5087968;28;20036;-70
2023/05/24 03:02:42;;;;;;;16.92;3.78;;;6.20;99.90;;;;;;5087650;28;20117;-70
2023/05/24 03:05:08;;;;;;;19.65;3.80;;;6.20;99.90;;;;;;5088161;28;20115;-70
2023/05/24 03:07:34;;;;;;;16.30;4.07;;;6.30;99.90;;;;;;5087057;28;20587;-70
2023/05/24 03:10:00;;;;;;;27.42;5.57;;;6.30;99.90;;;;;;5088199;28;20553;-70
2023/05/24 03:12:25;;;;;;;16.77;3.57;;;6.30;99.90;;;;;;5070573;28;20036;-70
2023/05/24 03:14:51;;;;;;;20.53;3.57;;;6.40;99.90;;;;;;5087394;28;20032;-70
2023/05/24 03:17:17;;;;;;;18.33;3.80;;;6.40;99.90;;;;;;5069548;28;20515;-70
2023/05/24 03:19:43;;;;;;;23.50;4.50;;;6.40;99.90;;;;;;5071005;28;20036;-70
2023/05/24 03:22:08;;;;;;;18.27;4.27;;;6.40;99.90;;;;;;5071167;28;20089;-70
2023/05/24 03:24:34;;;;;;;22.53;4.03;;;6.50;99.90;;;;;;5066985;28;20071;-70
2023/05/24 03:27:01;;;;;;;16.43;3.37;;;6.50;99.90;;;;;;5065040;28;20040;-70
2023/05/24 03:29:26;;;;;;;25.38;4.05;;;6.60;99.90;;;;;;5069431;28;20048;-70
2023/05/24 03:31:52;;;;;;;21.77;3.93;;;6.60;99.90;;;;;;5086386;28;20506;-70
2023/05/24 03:34:18;;;;;;;15.80;3.50;;;6.60;99.90;;;;;;5086906;28;20047;-70
2023/05/24 03:36:43;;;;;;;21.73;4.30;;;6.70;99.90;;;;;;5069947;28;20044;-70
2023/05/24 03:39:09;;;;;;;19.17;3.70;;;6.80;99.90;;;;;;5070705;28;20449;-70
2023/05/24 03:41:35;;;;;;;22.03;4.23;;;6.80;99.90;;;;;;5065418;28;20044;-70
2023/05/24 03:44:01;;;;;;;19.00;4.53;;;6.80;99.90;;;;;;5068612;28;20089;-70
2023/05/24 03:46:26;;;;;;;18.93;4.70;;;6.90;99.90;;;;;;5070880;28;20032;-70
2023/05/24 03:48:52;;;;;;;19.63;4.00;;;7.00;99.90;;;;;;5069550;28;20274;-70
2023/05/24 03:51:18;;;;;;;15.80;3.30;;;7.00;99.90;;;;;;5065336;28;20548;-70
2023/05/24 03:53:44;;;;;;;17.30;3.53;;;7.00;99.90;;;;;;5066565;28;20071;-70
2023/05/24 03:56:09;;;;;;;18.47;3.90;;;7.10;99.90;;;;;;5066788;28;20063;-70
2023/05/24 03:58:36;;;;;;;22.67;4.50;;;7.10;99.90;;;;;;5063597;28;20287;-70
2023/05/24 04:01:02;;;;;;;20.15;3.78;;;7.10;99.90;;;;;;5052205;28;20043;-70
2023/05/24 04:03:28;;;;;;;20.23;4.35;;;7.10;99.90;;;;;;5056691;28;20033;-70
2023/05/24 04:05:53;;;;;;;27.87;4.70;;;7.20;99.90;;;;;;5049988;28;20479;-70
2023/05/24 04:08:19;;;;;;;17.50;4.37;;;7.20;99.90;;;;;;5067187;28;20043;-70
2023/05/24 04:10:45;;;;;;;24.97;4.43;;;7.30;99.90;;;;;;5066346;28;20259;-70
2023/05/24 04:13:11;;;;;;;26.43;4.53;;;7.30;99.90;;;;;;5065326;28;20052;-70
2023/05/24 04:15:36;;;;;;;21.03;3.70;;;7.40;99.90;;;;;;5066583;28;20040;-70
2023/05/24 04:18:02;;;;;;;20.47;4.10;;;7.50;99.90;;;;;;5050184;28;20036;-70
2023/05/24 04:20:28;;;;;;;19.00;3.53;;;7.50;99.90;;;;;;5066717;28;20354;-70
2023/05/24 04:22:55;;;;;;;15.07;3.72;;;7.60;99.90;;;;;;5064077;28;20101;-70
2023/05/24 04:25:21;;;;;;;14.27;3.88;;;7.70;99.90;;;;;;5049763;28;20045;-70
2023/05/24 04:27:47;;;;;;;22.95;4.45;;;7.70;99.90;;;;;;5066137;28;20041;-70
2023/05/24 04:30:17;;;;;;;15.57;3.38;;;7.80;99.90;;;;;;5070583;28;20043;-70
2023/05/24 04:32:46;;;;;;;21.75;3.30;;;7.90;99.90;;;;;;5053815;28;20029;-70
2023/05/24 04:35:12;;;;;;;21.92;3.75;;;7.90;99.90;;;;;;5067962;28;20029;-70
2023/05/24 04:37:39;;;;;;;20.98;3.90;;;8.00;99.90;;;;;;5070891;28;20127;-70
2023/05/24 04:40:07;;;;;;;15.50;3.70;;;8.10;99.90;;;;;;5060675;28;20097;-69
2023/05/24 04:42:33;;;;;;;19.55;4.22;;;8.30;99.90;;;;;;5085640;28;20048;-69
2023/05/24 04:44:59;;;;;;;18.45;4.07;;;8.40;99.90;;;;;;5073609;28;20040;-69
2023/05/24 04:47:25;;;;;;;25.70;5.40;;;8.50;99.90;;;;;;5090323;28;20081;-69
2023/05/24 04:49:51;;;;;;;17.93;3.63;;;8.60;99.90;;;;;;5073313;28;20059;-71
2023/05/24 04:52:17;;;;;;;19.23;3.93;;;8.80;99.90;;;;;;5082929;28;20040;-71
2023/05/24 04:54:43;;;;;;;14.98;3.00;;;9.10;99.90;;;;;;5089319;28;20286;-71
2023/05/24 04:57:08;;;;;;;18.37;3.97;;;9.80;99.90;;;;;;5090599;28;20120;-71
2023/05/24 04:59:35;;;;;;;22.43;4.40;;;10.50;99.90;;;;;;5090682;28;20043;-71
2023/05/24 05:02:01;;;;;;;15.88;3.40;;;11.10;99.90;;;;;;5089186;28;20067;-71
2023/05/24 05:04:26;;;;;;;14.83;3.27;;;11.60;99.90;;;;;;5088662;28;20075;-71
2023/05/24 05:06:52;;;;;;;15.43;3.70;;;12.00;99.90;;;;;;5087413;28;20046;-71
2023/05/24 05:09:18;;;;;;;16.93;3.73;;;12.50;99.90;;;;;;5071066;28;20044;-71
2023/05/24 05:11:46;;;;;;;17.53;3.70;;;12.90;99.80;;;;;;5090247;28;20048;-71
2023/05/24 05:14:12;;;;;;;17.23;3.80;;;13.30;96.60;;;;;;5087664;28;20098;-71
2023/05/24 05:16:38;;;;;;;19.97;4.10;;;13.70;97.30;;;;;;5080952;28;20875;-71
2023/05/24 05:19:04;;;;;;;16.80;4.10;;;14.10;95.00;;;;;;5069678;28;20076;-71
2023/05/24 05:21:31;;;;;;;21.57;4.43;;;14.00;89.80;;;;;;5069591;28;20043;-71
2023/05/24 05:24:01;;;;;;;18.23;4.25;;;13.70;92.40;;;;;;5086619;28;20314;-69
2023/05/24 05:26:28;;;;;;;22.13;4.40;;;13.70;92.90;;;;;;5090038;28;20096;-69
2023/05/24 05:28:54;;;;;;;19.43;3.83;;;13.40;93.40;;;;;;5087359;28;20784;-69
2023/05/24 05:31:21;;;;;;;19.33;3.80;;;13.10;93.90;;;;;;5073193;28;20373;-69
2023/05/24 05:33:46;;;;;;;19.90;3.50;;;12.70;95.50;;;;;;5089114;28;20289;-69
2023/05/24 05:36:12;;;;;;;17.73;3.77;;;12.50;97.10;;;;;;5072001;28;20278;-69
2023/05/24 05:38:38;;;;;;;21.37;3.97;;;12.20;97.80;;;;;;5070526;28;20052;-69
2023/05/24 05:41:03;;;;;;;18.83;3.50;;;12.20;98.80;;;;;;5070981;28;20083;-69
2023/05/24 05:43:30;;;;;;;18.40;4.60;;;12.00;99.50;;;;;;5070779;28;20484;-69
2023/05/24 05:45:56;;;;;;;23.03;4.40;;;11.90;99.90;;;;;;5087688;28;20052;-71
2023/05/24 05:48:22;;;;;;;20.73;4.37;;;11.80;99.90;;;;;;5071207;28;21147;-71
2023/05/24 05:50:47;;;;;;;18.10;4.53;;;11.70;99.90;;;;;;5085559;28;20032;-71
2023/05/24 05:53:15;;;;;;;19.13;3.63;;;11.70;99.90;;;;;;5071161;28;20043;-71
2023/05/24 05:55:40;;;;;;;18.87;4.57;;;11.70;99.90;;;;;;5088982;28;20069;-71
2023/05/24 05:58:06;;;;;;;22.33;4.20;;;11.70;99.90;;;;;;5088316;28;20358;-71
2023/05/24 06:00:32;;;;;;;22.07;4.30;;;11.80;99.90;;;;;;5071341;28;20450;-69
2023/05/24 06:02:58;;;;;;;15.77;3.87;;;11.80;99.90;;;;;;5087402;28;20050;-69
2023/05/24 06:05:23;;;;;;;17.90;4.47;;;11.80;99.90;;;;;;5071606;28;20044;-69
2023/05/24 06:07:49;;;;;;;22.73;4.70;;;11.90;99.90;;;;;;5081201;28;20090;-69
2023/05/24 06:10:15;;;;;;;18.37;3.90;;;12.20;99.90;;;;;;5080223;28;20038;-69
2023/05/24 06:12:41;;;;;;;19.40;3.80;;;12.30;99.90;;;;;;5087446;28;20036;-69
2023/05/24 06:15:07;;;;;;;19.37;4.40;;;12.30;99.70;;;;;;5087464;28;20475;-69
2023/05/24 06:17:33;;;;;;;18.83;3.47;;;12.20;99.90;;;;;;5087673;28;20044;-69
2023/05/24 06:19:59;;;;;;;19.07;4.50;;;12.20;99.00;;;;;;5088048;28;20274;-69
2023/05/24 06:22:28;;;;;;;17.67;3.63;;;12.20;97.50;;;;;;5070655;28;20351;-69
2023/05/24 06:24:54;;;;;;;18.57;5.17;;;12.20;98.20;;;;;;5071187;28;20071;-69
2023/05/24 06:27:20;;;;;;;16.57;3.60;;;12.20;96.80;;;;;;5070722;28;20816;-69
2023/05/24 06:29:45;;;;;;;17.53;4.17;;;12.20;95.90;;;;;;5070218;28;20290;-69
2023/05/24 06:32:11;;;;;;;15.87;3.00;;;12.20;95.30;;;;;;5087754;28;20071;-69
2023/05/24 06:34:37;;;;;;;16.87;3.97;;;12.20;95.20;;;;;;5088673;28;20437;-71
2023/05/24 06:37:03;;;;;;;14.63;3.90;;;12.20;95.00;;;;;;5088702;28;20036;-71
2023/05/24 06:39:29;;;;;;;17.87;3.40;;;12.10;95.00;;;;;;5051761;28;1104773;-71
2023/05/24 06:41:54;;;;;;;18.00;3.77;;;12.20;95.80;;;;;;5075205;28;20043;-71
2023/05/24 06:44:22;;;;;;;19.47;4.07;;;12.30;95.90;;;;;;5076037;28;20036;-71
2023/05/24 06:46:47;;;;;;;14.97;3.17;;;12.50;96.50;;;;;;5092106;28;20036;-70
2023/05/24 06:49:13;;;;;;;16.30;3.63;;;12.70;95.80;;;;;;5074569;28;20297;-71
2023/05/24 06:51:39;;;;;;;12.47;2.60;;;12.90;94.90;;;;;;5090960;28;20104;-71
2023/05/24 06:54:05;;;;;;;15.50;3.07;;;13.10;93.30;;;;;;5091715;28;20495;-71
2023/05/24 06:56:31;;;;;;;12.23;2.70;;;13.30;92.10;;;;;;5076086;28;21298;-71
2023/05/24 06:58:58;;;;;;;14.07;3.33;;;13.60;87.80;;;;;;5092119;28;20317;-70
2023/05/24 07:01:24;;;;;;;15.63;3.57;;;14.20;87.20;;;;;;5075327;28;20327;-71
2023/05/24 07:03:49;;;;;;;12.67;2.83;;;14.70;84.30;;;;;;5091931;28;20289;-71
2023/05/24 07:06:16;;;;;;;16.27;3.00;;;14.90;80.90;;;;;;5091469;28;20158;-71
2023/05/24 07:08:41;;;;;;;15.57;2.80;;;14.80;79.30;;;;;;5091300;28;20149;-70
2023/05/24 07:11:08;;;;;;;11.43;2.93;;;14.70;79.70;;;;;;5074737;28;20702;-72
2023/05/24 07:13:34;;;;;;;12.87;2.93;;;14.70;77.60;;;;;;5075398;28;20044;-71
2023/05/24 07:16:00;;;;;;;13.00;3.00;;;14.70;77.40;;;;;;5074481;28;20412;-71
2023/05/24 07:18:25;;;;;;;11.60;2.60;;;14.80;78.00;;;;;;5091591;28;20071;-71
2023/05/24 07:20:51;;;;;;;14.40;3.07;;;15.00;77.30;;;;;;5091962;28;20047;-71
2023/05/24 07:23:17;;;;;;;12.33;3.03;;;15.00;77.40;;;;;;5084253;28;20487;-71
2023/05/24 07:25:42;;;;;;;15.10;3.33;;;14.80;74.90;;;;;;5091428;28;21374;-71
2023/05/24 07:28:09;;;;;;;12.10;3.03;;;14.60;73.40;;;;;;5109655;28;20076;-71
2023/05/24 07:30:38;;;;;;;13.33;3.00;;;14.40;75.10;;;;;;5091717;28;20108;-71
2023/05/24 07:33:03;;;;;;;14.53;2.80;;;14.20;75.50;;;;;;5090919;28;20289;-70
2023/05/24 07:35:29;;;;;;;14.50;3.30;;;14.30;75.50;;;;;;5090517;28;20289;-71
2023/05/24 07:37:55;;;;;;;15.93;3.00;;;14.40;75.40;;;;;;5090986;28;20036;-70
2023/05/24 07:40:21;;;;;;;11.53;2.73;;;14.60;75.80;;;;;;5069088;28;20294;-71
2023/05/24 07:42:47;;;;;;;14.17;3.13;;;15.00;74.30;;;;;;5088750;28;20135;-71
2023/05/24 07:45:13;;;;;;;11.23;3.70;;;15.10;72.10;;;;;;5087836;28;20765;-70
2023/05/24 07:47:39;;;;;;;13.30;2.87;;;15.00;72.00;;;;;;5087108;28;20110;-70
2023/05/24 07:50:05;;;;;;;12.63;2.80;;;14.70;73.10;;;;;;5087602;28;20353;-70
2023/05/24 07:52:31;;;;;;;9.87;2.77;;;14.40;72.90;;;;;;5088000;28;20047;-71
2023/05/24 07:54:57;;;;;;;14.23;2.80;;;14.30;73.70;;;;;;5070780;28;20282;-71
2023/05/24 07:57:22;;;;;;;12.07;2.77;;;14.20;75.10;;;;;;5088142;28;20036;-70
2023/05/24 07:59:48;;;;;;;8.50;2.40;;;14.20;75.20;;;;;;5087988;28;20203;-71
2023/05/24 08:02:15;;;;;;;9.87;3.00;;;14.50;75.00;;;;;;5086997;28;20044;-70
2023/05/24 08:04:42;;;;;;;15.47;2.97;;;14.80;74.20;;;;;;5070508;28;20050;-71
2023/05/24 08:07:08;;;;;;;8.17;2.23;;;15.10;72.80;;;;;;5087606;28;20507;-71
2023/05/24 08:09:35;;;;;;;11.70;2.80;;;15.30;71.90;;;;;;5087412;28;20714;-71
2023/05/24 08:12:05;;;;;;;10.43;2.47;;;15.60;71.20;;;;;;5087914;28;20328;-71
2023/05/24 08:14:31;;;;;;;14.53;3.50;;;15.70;69.40;;;;;;5087544;28;20301;-71
2023/05/24 08:16:59;;;;;;;13.23;2.47;;;15.70;69.20;;;;;;5087796;28;20274;-71
2023/05/24 08:19:26;;;;;;;13.47;2.60;;;15.50;66.80;;;;;;5071091;28;20290;-71
2023/05/24 08:21:52;;;;;;;12.03;2.60;;;15.50;68.40;;;;;;5071512;28;20373;-71
2023/05/24 08:24:19;;;;;;;14.60;2.97;;;15.50;69.60;;;;;;5086573;28;20298;-71
2023/05/24 08:26:45;;;;;;;8.87;2.37;;;15.30;69.90;;;;;;5087450;28;20290;-71
2023/05/24 08:29:11;;;;;;;12.63;2.57;;;15.30;70.60;;;;;;5087321;28;20281;-70
2023/05/24 08:31:37;;;;;;;11.33;2.33;;;15.20;68.50;;;;;;5087001;28;20286;-71
2023/05/24 08:34:03;;;;;;;9.90;2.20;;;15.00;67.90;;;;;;5086653;28;20044;-70
2023/05/24 08:36:29;;;;;;;9.47;2.33;;;14.90;68.40;;;;;;5087375;28;20047;-70
2023/05/24 08:38:55;;;;;;;9.70;2.23;;;14.90;70.30;;;;;;5067340;28;20286;-71
2023/05/24 08:41:21;;;;;;;11.00;2.57;;;14.70;69.10;;;;;;5084185;28;20767;-71
2023/05/24 08:43:47;;;;;;;16.17;3.30;;;14.50;70.20;;;;;;5083633;28;20070;-71
2023/05/24 08:46:14;;;;;;;15.63;3.10;;;14.50;70.90;;;;;;5066754;28;20676;-71
2023/05/24 08:48:47;;;;;;;12.23;2.53;;;14.40;70.10;;;;;;5084421;28;20101;-70
2023/05/24 08:51:14;;;;;;;13.17;3.07;;;14.30;70.90;;;;;;5072038;28;20286;-71
2023/05/24 08:53:47;;;;;;;12.70;2.37;;;14.10;71.70;;;;;;5062617;28;20283;-71
2023/05/24 08:56:16;;;;;;;10.33;3.13;;;14.10;72.50;;;;;;5083922;28;20286;-71
2023/05/24 08:58:42;;;;;;;12.97;3.03;;;14.00;72.90;;;;;;5084798;28;20286;-71
2023/05/24 09:01:09;;;;;;;12.03;2.50;;;13.90;72.10;;;;;;5084149;28;20339;-71
2023/05/24 09:03:36;;;;;;;9.60;2.33;;;13.90;73.50;;;;;;5083596;28;20808;-70
2023/05/24 09:06:03;;;;;;;11.30;3.53;;;13.90;73.80;;;;;;5083596;28;20301;-70
2023/05/24 09:08:32;;;;;;;12.23;2.80;;;14.00;74.00;;;;;;5084641;28;20282;-70
2023/05/24 09:10:58;;;;;;;10.90;2.30;;;14.10;75.10;;;;;;5067408;28;20282;-70
2023/05/24 09:13:25;;;;;;;12.03;2.70;;;14.30;75.00;;;;;;5066742;28;20326;-70
2023/05/24 09:15:52;;;;;;;11.83;2.67;;;14.40;72.90;;;;;;5069754;28;20285;-71
2023/05/24 09:18:17;;;;;;;13.67;3.50;;;14.30;72.70;;;;;;5070686;28;20381;-71
2023/05/24 09:20:43;;;;;;;13.17;2.60;;;14.40;73.20;;;;;;5071697;28;20737;-71
2023/05/24 09:23:11;;;;;;;11.60;2.73;;;14.50;73.30;;;;;;5087918;28;20075;-71
2023/05/24 09:25:45;;;;;;;11.07;2.50;;;14.70;73.30;;;;;;5087518;28;20141;-71
2023/05/24 09:28:16;;;;;;;10.43;3.07;;;14.80;71.70;;;;;;5068486;28;20321;-71
2023/05/24 09:30:43;;;;;;;10.07;2.47;;;14.90;70.30;;;;;;5071770;28;20612;-71
2023/05/24 09:33:10;;;;;;;13.07;2.53;;;14.80;70.60;;;;;;5073161;28;20289;-71
2023/05/24 09:35:36;;;;;;;12.43;2.70;;;14.90;71.50;;;;;;5089631;28;20293;-71
2023/05/24 09:38:04;;;;;;;9.93;2.93;;;14.80;71.10;;;;;;5090246;28;20282;-71
2023/05/24 09:40:30;;;;;;;10.90;2.87;;;14.90;71.20;;;;;;5089583;28;20052;-71
2023/05/24 09:43:07;;;;;;;8.87;2.80;;;15.00;71.70;;;;;;5072989;28;20289;-71
2023/05/24 09:45:45;;;;;;;11.07;2.77;;;15.10;71.50;;;;;;5088390;28;20028;-71
2023/05/24 09:48:16;;;;;;;12.00;3.07;;;15.30;71.50;;;;;;5089844;28;20286;-71
2023/05/24 09:50:46;;;;;;;12.80;2.93;;;15.30;70.80;;;;;;5081235;28;20320;-71
2023/05/24 09:53:12;;;;;;;12.40;2.73;;;15.50;70.90;;;;;;5066454;28;20290;-71
2023/05/24 09:55:37;;;;;;;11.00;2.30;;;15.80;70.70;;;;;;5087353;28;20355;-71
2023/05/24 09:58:05;;;;;;;11.50;2.00;;;16.10;70.40;;;;;;5072753;28;20080;-71
2023/05/24 10:00:39;;;;;;;10.73;2.87;;;16.30;67.00;;;;;;5089805;28;20439;-71
2023/05/24 10:03:07;;;;;;;13.23;3.05;;;16.40;67.30;;;;;;5070351;28;20289;-71
2023/05/24 10:05:34;;;;;;;14.27;2.97;;;16.50;66.80;;;;;;5088472;28;20040;-71
2023/05/24 10:08:00;;;;;;;8.77;2.63;;;16.50;67.10;;;;;;5089418;28;20286;-71
2023/05/24 10:10:30;;;;;;;10.40;2.53;;;16.50;67.20;;;;;;5072902;28;20288;-71
2023/05/24 10:12:57;;;;;;;10.60;2.37;;;16.30;66.30;;;;;;5089699;28;20370;-71
2023/05/24 10:15:24;;;;;;;10.37;2.30;;;16.00;67.20;;;;;;5089788;28;20282;-71
2023/05/24 10:17:50;;;;;;;11.40;3.00;;;15.90;68.00;;;;;;5072035;28;20340;-71
2023/05/24 10:20:17;;;;;;;9.17;2.50;;;15.70;67.70;;;;;;5073334;28;20350;-71
2023/05/24 10:22:46;;;;;;;9.87;2.33;;;15.40;68.80;;;;;;5089920;28;20278;-71
2023/05/24 10:25:21;;;;;;;9.50;2.63;;;15.30;69.20;;;;;;5071998;28;20278;-71
2023/05/24 10:27:49;;;;;;;12.02;2.85;;;15.20;69.80;;;;;;5090448;28;20282;-71
2023/05/24 10:30:17;;;;;;;10.80;2.73;;;15.20;69.90;;;;;;5075507;28;20114;-71
2023/05/24 10:32:46;;;;;;;10.90;2.90;;;15.20;69.50;;;;;;5088933;28;20346;-71
2023/05/24 10:35:17;;;;;;;11.20;3.07;;;15.20;68.50;;;;;;5088891;28;20493;-71
2023/05/24 10:37:46;;;;;;;8.53;2.13;;;15.10;69.00;;;;;;5072086;28;20311;-71
2023/05/24 10:40:19;;;;;;;9.83;2.60;;;15.30;69.90;;;;;;5085057;28;20291;-71
2023/05/24 10:42:46;;;;;;;11.57;2.60;;;15.50;69.70;;;;;;5068098;28;20291;-71
2023/05/24 10:45:34;;;;;;;13.23;2.83;;;15.60;69.40;;;;;;5064398;28;20779;-71
2023/05/24 10:48:06;;;;;;;13.27;2.77;;;15.50;68.80;;;;;;5073888;28;20282;-71
2023/05/24 10:50:32;;;;;;;9.53;3.27;;;15.40;69.40;;;;;;5064101;28;20284;-71
2023/05/24 10:53:18;;;;;;;11.50;2.90;;;15.30;70.40;;;;;;5048198;28;20294;-71
2023/05/24 10:55:53;;;;;;;10.70;2.70;;;15.30;70.10;;;;;;5067978;28;20298;-71
2023/05/24 10:58:19;;;;;;;10.13;3.03;;;15.20;69.70;;;;;;5064878;28;20861;-71
2023/05/24 11:00:47;;;;;;;8.53;2.37;;;15.30;70.00;;;;;;5076363;28;20539;-71
2023/05/24 11:03:22;;;;;;;8.90;2.27;;;15.40;70.30;;;;;;5068102;28;20389;-72
2023/05/24 11:05:51;;;;;;;8.95;2.67;;;15.70;70.20;;;;;;5056437;28;20311;-72
2023/05/24 11:08:29;;;;;;;11.27;2.50;;;15.80;69.40;;;;;;5083764;28;20040;-73
2023/05/24 11:11:10;;;;;;;11.53;2.60;;;15.90;69.70;;;;;;5085368;28;20680;-72
2023/05/24 11:13:37;;;;;;;11.80;3.00;;;15.80;68.20;;;;;;5068621;28;20290;-71
2023/05/24 11:16:03;;;;;;;11.97;2.50;;;15.60;69.00;;;;;;5067905;28;20295;-72
2023/05/24 11:18:28;;;;;;;9.27;2.83;;;15.50;70.00;;;;;;5068349;28;20282;-71
2023/05/24 11:20:55;;;;;;;14.03;2.60;;;15.40;69.60;;;;;;5074808;28;20109;-71
2023/05/24 11:23:22;;;;;;;8.70;2.17;;;15.30;70.60;;;;;;5052857;28;20075;-71
2023/05/24 11:25:48;;;;;;;10.57;2.20;;;15.40;71.10;;;;;;5059392;28;20289;-71
2023/05/24 11:28:14;;;;;;;9.20;2.40;;;15.60;70.30;;;;;;5077144;28;20347;-72
2023/05/24 11:30:44;;;;;;;9.67;2.60;;;15.80;69.60;;;;;;5061338;28;20663;-71
2023/05/24 11:33:17;;;;;;;12.47;2.77;;;16.00;69.20;;;;;;5069682;28;20874;-71
2023/05/24 11:35:43;;;;;;;11.37;2.60;;;16.20;69.00;;;;;;5071505;28;20770;-70
2023/05/24 11:38:13;;;;;;;8.63;2.47;;;16.40;69.30;;;;;;5076830;28;20290;-71
2023/05/24 11:40:44;;;;;;;14.13;3.27;;;16.70;67.60;;;;;;5075321;28;20302;-71
2023/05/24 11:43:13;;;;;;;13.03;3.17;;;16.70;66.60;;;;;;5069292;28;20775;-71
2023/05/24 11:45:41;;;;;;;11.90;2.93;;;16.70;67.30;;;;;;5057793;28;20282;-71
2023/05/24 11:48:09;;;;;;;10.43;2.73;;;16.70;68.60;;;;;;5067770;28;20657;-71
2023/05/24 11:50:47;;;;;;;11.33;3.30;;;16.70;67.80;;;;;;5060293;28;20377;-72
2023/05/24 11:53:15;;;;;;;11.37;2.43;;;16.60;67.20;;;;;;5055156;28;20302;-72
2023/05/24 11:55:41;;;;;;;12.13;2.60;;;16.50;66.60;;;;;;5067249;28;20606;-71
2023/05/24 11:58:17;;;;;;;11.37;3.47;;;16.30;67.20;;;;;;5070238;28;20298;-71
2023/05/24 12:00:42;;;;;;;;;;;16.10;67.70;;;;;;5068353;28;20316;-72
2023/05/24 12:03:09;;;;;;;10.17;2.90;;;16.20;68.50;;;;;;5067315;28;19920;-71
2023/05/24 12:05:36;;;;;;;8.73;2.83;;;16.50;69.30;;;;;;5052949;28;20082;-71
2023/05/24 12:08:11;;;;;;;8.40;2.27;;;16.70;67.60;;;;;;5074457;28;20286;-71
2023/05/24 12:10:38;;;;;;;11.18;2.75;;;16.90;65.70;;;;;;5065017;28;20792;-72
2023/05/24 12:13:25;;;;;;;10.77;2.90;;;16.90;65.20;;;;;;5077658;28;20240;-72
2023/05/24 12:15:54;;;;;;;11.47;2.53;;;16.80;65.50;;;;;;5077594;28;20864;-71
2023/05/24 12:18:21;;;;;;;11.30;2.23;;;16.90;65.00;;;;;;5076844;28;20322;-72
2023/05/24 12:20:51;;;;;;;6.07;2.27;;;17.00;63.40;;;;;;5063359;28;20306;-72
2023/05/24 12:23:23;;;;;;;5.73;2.30;;;17.10;61.20;;;;;;5079086;28;20780;-72
2023/05/24 12:25:49;;;;;;;7.13;2.00;;;17.20;60.80;;;;;;5068610;28;20274;-72
2023/05/24 12:28:18;;;;;;;7.40;2.10;;;17.30;60.80;;;;;;5060299;28;20286;-71
2023/05/24 12:30:44;;;;;;;8.67;2.43;;;17.10;59.80;;;;;;5071469;28;20057;-71
2023/05/24 12:33:11;;;;;;;6.53;2.37;;;17.00;60.60;;;;;;5074359;28;20308;-72
2023/05/24 12:35:40;;;;;;;7.03;2.27;;;17.10;61.10;;;;;;5078608;28;20286;-72
2023/05/24 12:38:08;;;;;;;9.70;2.43;;;17.20;59.70;;;;;;5073003;28;20044;-71
2023/05/24 12:40:34;;;;;;;10.70;2.20;;;17.20;59.60;;;;;;5081492;28;20307;-71
2023/05/24 12:42:59;;;;;;;9.07;2.93;;;17.20;59.60;;;;;;5090749;28;20649;-73
2023/05/24 12:45:28;;;;;;;9.53;2.87;;;17.20;60.00;;;;;;5073617;28;20054;-71